createdAt,value
2019-03-26T00:01:57.943Z,3.55
2019-03-26T00:05:04.379Z,3.20
2019-03-26T00:08:10.644Z,2.50
2019-03-26T00:11:16.899Z,2.60
2019-03-26T00:14:23.167Z,2.20
2019-03-26T00:17:29.492Z,2.08
2019-03-26T00:20:35.724Z,2.12
2019-03-26T00:23:41.967Z,2.00
2019-03-26T00:26:48.272Z,2.37
2019-03-26T00:29:54.507Z,2.12
2019-03-26T00:33:00.888Z,2.30
2019-03-26T00:36:07.139Z,1.75
2019-03-26T00:39:14.331Z,1.85
2019-03-26T00:42:20.635Z,1.75
2019-03-26T00:45:26.880Z,1.60
2019-03-26T00:48:33.151Z,1.77
2019-03-26T00:51:40.983Z,1.55
2019-03-26T00:54:47.222Z,1.57
2019-03-26T00:57:53.522Z,2.00
2019-03-26T01:00:59.753Z,1.75
2019-03-26T01:04:06.207Z,1.60
2019-03-26T01:07:12.519Z,1.50
2019-03-26T01:10:27.976Z,1.50
2019-03-26T01:13:34.384Z,1.57
2019-03-26T01:16:40.630Z,1.50
2019-03-26T01:19:46.959Z,1.70
2019-03-26T01:22:53.354Z,1.72
2019-03-26T01:25:59.719Z,1.55
2019-03-26T01:29:06.026Z,1.85
2019-03-26T01:32:12.287Z,1.62
2019-03-26T01:35:18.547Z,1.65
2019-03-26T01:38:24.768Z,1.35
2019-03-26T01:41:31.074Z,1.42
2019-03-26T01:44:37.323Z,1.45
2019-03-26T01:47:43.742Z,1.45
2019-03-26T01:50:50.447Z,1.27
2019-03-26T01:53:58.488Z,1.30
2019-03-26T01:57:04.871Z,1.50
2019-03-26T02:00:11.399Z,1.90
2019-03-26T02:03:17.735Z,1.75
2019-03-26T02:06:24.039Z,1.50
2019-03-26T02:09:30.351Z,2.00
2019-03-26T02:12:37.739Z,1.60
2019-03-26T02:15:43.972Z,1.60
2019-03-26T02:18:50.252Z,1.70
2019-03-26T02:21:56.512Z,1.32
2019-03-26T02:25:02.793Z,1.50
2019-03-26T02:28:09.164Z,1.52
2019-03-26T02:31:15.433Z,1.42
2019-03-26T02:34:21.800Z,1.40
2019-03-26T02:37:28.976Z,1.80
2019-03-26T02:40:35.244Z,1.70
2019-03-26T02:43:41.506Z,1.32
2019-03-26T02:46:47.777Z,1.50
2019-03-26T02:49:54.123Z,1.65
2019-03-26T02:53:00.327Z,1.75
2019-03-26T02:56:06.577Z,1.50
2019-03-26T02:59:12.850Z,1.50
2019-03-26T03:02:19.109Z,1.57
2019-03-26T03:05:35.196Z,1.65
2019-03-26T03:08:34.300Z,1.50
2019-03-26T03:11:40.569Z,1.35
2019-03-26T03:14:46.952Z,1.30
2019-03-26T03:17:53.234Z,1.50
2019-03-26T03:20:59.800Z,1.45
2019-03-26T03:24:06.054Z,1.30
2019-03-26T03:27:12.322Z,1.42
2019-03-26T03:30:18.693Z,1.47
2019-03-26T03:33:24.978Z,1.40
2019-03-26T03:36:31.299Z,1.42
2019-03-26T03:39:37.510Z,1.32
2019-03-26T03:42:44.292Z,1.50
2019-03-26T03:45:50.576Z,1.20
2019-03-26T03:48:57.412Z,1.47
2019-03-26T03:52:04.924Z,1.50
2019-03-26T03:55:11.851Z,1.47
2019-03-26T03:58:19.723Z,1.45
2019-03-26T04:01:26.017Z,1.55
2019-03-26T04:04:32.223Z,1.70
2019-03-26T04:07:38.497Z,1.27
2019-03-26T04:10:44.880Z,1.30
2019-03-26T04:13:51.150Z,1.42
2019-03-26T04:16:57.462Z,1.50
2019-03-26T04:20:03.774Z,1.30
2019-03-26T04:23:10.044Z,1.20
2019-03-26T04:26:16.299Z,1.17
2019-03-26T04:29:22.603Z,1.27
2019-03-26T04:32:28.877Z,1.25
2019-03-26T04:35:35.159Z,1.10
2019-03-26T04:38:41.372Z,1.30
2019-03-26T04:41:47.661Z,1.30
2019-03-26T04:44:53.976Z,1.22
2019-03-26T04:48:00.187Z,1.12
2019-03-26T04:51:06.471Z,1.32
2019-03-26T04:54:12.713Z,1.20
2019-03-26T04:57:18.967Z,1.20
2019-03-26T05:00:25.475Z,1.30
2019-03-26T05:03:33.436Z,1.07
2019-03-26T05:06:39.877Z,1.25
2019-03-26T05:09:46.104Z,1.00
2019-03-26T05:12:52.361Z,0.90
2019-03-26T05:15:58.647Z,0.90
2019-03-26T05:19:04.978Z,0.90
2019-03-26T05:22:23.271Z,1.02
2019-03-26T05:25:19.512Z,1.10
2019-03-26T05:28:25.857Z,1.40
2019-03-26T05:31:32.124Z,1.40
2019-03-26T05:34:38.368Z,1.70
2019-03-26T05:37:44.668Z,1.47
2019-03-26T05:40:50.931Z,1.37
2019-03-26T05:43:57.180Z,1.20
2019-03-26T05:47:03.486Z,1.40
2019-03-26T05:50:11.249Z,1.25
2019-03-26T05:53:17.556Z,1.30
2019-03-26T05:56:23.823Z,1.10
2019-03-26T05:59:30.152Z,1.00
2019-03-26T06:02:36.463Z,1.05
2019-03-26T06:05:42.689Z,0.95
2019-03-26T06:08:48.940Z,1.00
2019-03-26T06:11:55.204Z,0.75
2019-03-26T06:15:01.472Z,0.90
2019-03-26T06:18:07.740Z,0.85
2019-03-26T06:21:14.002Z,0.90
2019-03-26T06:24:20.276Z,1.20
2019-03-26T06:27:26.673Z,0.93
2019-03-26T06:30:32.852Z,1.02
2019-03-26T06:33:39.076Z,0.98
2019-03-26T06:36:45.399Z,0.70
2019-03-26T06:39:51.736Z,0.70
2019-03-26T06:42:58.043Z,0.70
2019-03-26T06:46:04.252Z,0.90
2019-03-26T06:49:10.518Z,0.70
2019-03-26T06:52:16.791Z,0.80
2019-03-26T06:55:23.055Z,0.80
2019-03-26T06:58:29.311Z,0.70
2019-03-26T07:01:35.583Z,0.68
2019-03-26T07:04:51.077Z,0.93
2019-03-26T07:07:59.152Z,1.35
2019-03-26T07:11:05.443Z,0.60
2019-03-26T07:14:11.812Z,0.72
2019-03-26T07:17:18.111Z,0.70
2019-03-26T07:20:24.382Z,0.70
2019-03-26T07:23:30.619Z,0.93
2019-03-26T07:26:36.879Z,0.80
2019-03-26T07:29:43.151Z,0.90
2019-03-26T07:32:49.513Z,0.50
2019-03-26T07:35:55.691Z,0.60
2019-03-26T07:39:01.950Z,0.70
2019-03-26T07:42:08.341Z,0.65
2019-03-26T07:45:15.171Z,0.70
2019-03-26T07:48:22.963Z,0.50
2019-03-26T07:51:29.215Z,0.68
2019-03-26T07:54:35.460Z,0.60
2019-03-26T07:57:42.728Z,0.70
2019-03-26T08:00:48.991Z,0.98
2019-03-26T08:03:55.308Z,0.57
2019-03-26T08:07:02.455Z,0.47
2019-03-26T08:10:08.917Z,0.60
2019-03-26T08:13:15.139Z,0.70
2019-03-26T08:16:21.373Z,0.62
2019-03-26T08:19:27.676Z,0.60
2019-03-26T08:22:33.910Z,0.62
2019-03-26T08:25:40.177Z,0.72
2019-03-26T08:28:46.563Z,0.53
2019-03-26T08:31:52.804Z,1.10
2019-03-26T08:35:00.360Z,1.10
2019-03-26T08:38:12.453Z,0.88
2019-03-26T08:41:14.491Z,1.05
2019-03-26T08:44:20.761Z,0.72
2019-03-26T08:47:26.892Z,0.90
2019-03-26T08:50:33.323Z,0.80
2019-03-26T08:53:39.547Z,0.90
2019-03-26T08:56:45.815Z,0.70
2019-03-26T08:59:52.123Z,0.80
2019-03-26T09:02:58.333Z,0.78
2019-03-26T09:06:07.917Z,0.75
2019-03-26T09:09:14.179Z,0.57
2019-03-26T09:12:20.521Z,0.82
2019-03-26T09:15:26.928Z,0.57
2019-03-26T09:18:33.259Z,0.50
2019-03-26T09:21:39.662Z,0.68
2019-03-26T09:24:45.933Z,0.70
2019-03-26T09:27:52.526Z,0.98
2019-03-26T09:30:59.896Z,0.65
2019-03-26T09:34:06.127Z,2.45
2019-03-26T09:37:12.392Z,1.85
2019-03-26T09:40:19.680Z,1.47
2019-03-26T09:43:25.952Z,1.00
2019-03-26T09:46:32.236Z,0.70
2019-03-26T09:49:38.535Z,0.78
2019-03-26T09:52:44.771Z,1.10
2019-03-26T09:55:51.040Z,1.25
2019-03-26T09:58:57.367Z,1.00
2019-03-26T10:02:03.581Z,1.87
2019-03-26T10:05:10.915Z,1.07
2019-03-26T10:08:17.964Z,1.12
2019-03-26T10:11:24.433Z,1.07
2019-03-26T10:14:30.686Z,1.07
2019-03-26T10:17:36.856Z,0.90
2019-03-26T10:20:43.128Z,0.88
2019-03-26T10:23:49.384Z,1.05
2019-03-26T10:26:55.634Z,0.80
2019-03-26T10:30:01.944Z,0.72
2019-03-26T10:33:08.807Z,0.80
2019-03-26T10:36:15.156Z,0.80
2019-03-26T10:39:21.435Z,0.90
2019-03-26T10:42:27.691Z,0.85
2019-03-26T10:45:34.103Z,0.75
2019-03-26T10:48:40.443Z,0.90
2019-03-26T10:51:47.739Z,0.90
2019-03-26T10:54:54.012Z,1.05
2019-03-26T10:58:00.284Z,0.88
2019-03-26T11:01:06.563Z,0.80
2019-03-26T11:04:12.790Z,0.62
2019-03-26T11:07:19.051Z,0.60
2019-03-26T11:10:27.044Z,0.78
2019-03-26T11:13:33.423Z,0.70
2019-03-26T11:16:39.699Z,0.68
2019-03-26T11:19:46.534Z,0.42
2019-03-26T11:22:52.932Z,0.50
2019-03-26T11:25:59.260Z,0.70
2019-03-26T11:29:05.580Z,0.57
2019-03-26T11:32:11.836Z,0.75
2019-03-26T11:35:18.106Z,0.82
2019-03-26T11:38:24.409Z,0.70
2019-03-26T11:41:30.696Z,0.53
2019-03-26T11:44:36.911Z,0.60
2019-03-26T11:47:43.172Z,0.53
2019-03-26T11:50:49.476Z,0.80
2019-03-26T11:53:55.707Z,0.42
2019-03-26T11:57:02.022Z,0.60
2019-03-26T12:00:09.256Z,0.60
2019-03-26T12:03:16.759Z,0.62
2019-03-26T12:06:23.079Z,0.68
2019-03-26T12:09:29.395Z,0.50
2019-03-26T12:12:35.697Z,0.60
2019-03-26T12:15:41.928Z,0.40
2019-03-26T12:18:49.924Z,0.60
2019-03-26T12:21:56.158Z,0.70
2019-03-26T12:25:02.371Z,0.62
2019-03-26T12:28:08.636Z,0.50
2019-03-26T12:31:14.944Z,0.70
2019-03-26T12:34:21.292Z,0.60
2019-03-26T12:37:27.603Z,0.50
2019-03-26T12:40:33.824Z,0.78
2019-03-26T12:43:40.076Z,0.40
2019-03-26T12:46:46.382Z,0.60
2019-03-26T12:49:52.634Z,0.50
2019-03-26T12:52:58.931Z,0.33
2019-03-26T12:56:05.140Z,0.57
2019-03-26T12:59:11.311Z,0.60
2019-03-26T13:02:17.608Z,0.50
2019-03-26T13:05:23.839Z,0.60
2019-03-26T13:08:30.168Z,0.55
2019-03-26T13:11:36.419Z,0.50
2019-03-26T13:14:42.643Z,0.60
2019-03-26T13:17:48.944Z,0.60
2019-03-26T13:20:55.115Z,0.47
2019-03-26T13:24:01.380Z,0.50
2019-03-26T13:27:07.671Z,0.40
2019-03-26T13:30:14.283Z,0.65
2019-03-26T13:33:20.694Z,0.45
2019-03-26T13:36:26.924Z,0.55
2019-03-26T13:39:33.212Z,0.33
2019-03-26T13:42:39.699Z,0.53
2019-03-26T13:45:45.941Z,0.50
2019-03-26T13:48:52.236Z,0.45
2019-03-26T13:51:58.499Z,0.50
2019-03-26T13:55:04.855Z,0.40
2019-03-26T13:58:11.135Z,0.40
2019-03-26T14:01:17.380Z,0.40
2019-03-26T14:04:23.631Z,0.50
2019-03-26T14:07:29.800Z,0.50
2019-03-26T14:10:41.277Z,0.40
2019-03-26T14:13:45.720Z,0.45
2019-03-26T14:16:51.975Z,0.60
2019-03-26T14:19:58.248Z,0.50
2019-03-26T14:23:04.639Z,0.50
2019-03-26T14:26:10.890Z,0.40
2019-03-26T14:29:17.151Z,0.40
2019-03-26T14:32:23.459Z,0.60
2019-03-26T14:35:29.697Z,0.40
2019-03-26T14:38:35.970Z,0.30
2019-03-26T14:41:42.241Z,0.40
2019-03-26T14:44:50.107Z,0.40
2019-03-26T14:47:56.396Z,0.50
2019-03-26T14:51:03.688Z,0.62
2019-03-26T14:54:09.955Z,0.47
2019-03-26T14:57:16.239Z,0.30
2019-03-26T15:00:22.505Z,0.57
2019-03-26T15:03:28.757Z,0.30
2019-03-26T15:06:35.052Z,0.50
2019-03-26T15:09:41.412Z,0.50
2019-03-26T15:12:47.718Z,0.53
2019-03-26T15:15:54.028Z,0.50
2019-03-26T15:19:01.352Z,0.30
2019-03-26T15:22:07.583Z,0.45
2019-03-26T15:25:13.851Z,0.50
2019-03-26T15:28:20.115Z,0.40
2019-03-26T15:31:28.111Z,0.45
2019-03-26T15:34:36.293Z,0.40
2019-03-26T15:37:42.399Z,0.47
2019-03-26T15:40:48.567Z,0.40
2019-03-26T15:43:54.835Z,0.42
2019-03-26T15:47:01.127Z,0.50
2019-03-26T15:50:07.843Z,0.50
2019-03-26T15:53:14.616Z,0.50
2019-03-26T15:56:20.844Z,0.40
2019-03-26T15:59:27.135Z,0.50
2019-03-26T16:02:33.359Z,0.47
2019-03-26T16:05:39.664Z,0.33
2019-03-26T16:08:45.911Z,0.40
2019-03-26T16:11:52.185Z,0.57
2019-03-26T16:14:58.484Z,0.57
2019-03-26T16:18:04.696Z,0.47
2019-03-26T16:21:10.999Z,0.40
2019-03-26T16:24:17.232Z,0.40
2019-03-26T16:27:23.519Z,0.60
2019-03-26T16:30:30.824Z,0.40
2019-03-26T16:33:37.380Z,0.53
2019-03-26T16:36:43.673Z,0.42
2019-03-26T16:39:49.900Z,0.50
2019-03-26T16:42:56.184Z,0.30
2019-03-26T16:46:02.464Z,0.55
2019-03-26T16:49:08.711Z,0.40
2019-03-26T16:52:14.998Z,0.47
2019-03-26T16:55:21.564Z,0.50
2019-03-26T16:58:28.833Z,0.70
2019-03-26T17:01:35.132Z,0.40
2019-03-26T17:04:41.497Z,0.40
2019-03-26T17:07:48.903Z,0.53
2019-03-26T17:10:55.396Z,0.35
2019-03-26T17:14:01.632Z,0.50
2019-03-26T17:17:07.932Z,0.50
2019-03-26T17:20:14.472Z,0.45
2019-03-26T17:23:20.798Z,0.42
2019-03-26T17:26:27.156Z,0.45
2019-03-26T17:29:33.368Z,0.50
2019-03-26T17:32:39.576Z,0.42
2019-03-26T17:35:45.766Z,0.40
2019-03-26T17:38:52.000Z,0.50
2019-03-26T17:41:58.260Z,0.72
2019-03-26T17:45:04.703Z,0.40
2019-03-26T17:48:10.875Z,0.45
2019-03-26T17:51:17.039Z,0.60
2019-03-26T17:54:23.311Z,0.50
2019-03-26T17:57:29.595Z,0.50
2019-03-26T18:00:44.408Z,0.53
2019-03-26T18:03:50.659Z,0.72
2019-03-26T18:06:56.908Z,1.07
2019-03-26T18:10:03.167Z,1.07
2019-03-26T18:13:09.407Z,0.90
2019-03-26T18:16:15.862Z,0.80
2019-03-26T18:19:23.183Z,0.70
2019-03-26T18:22:29.335Z,0.80
2019-03-26T18:25:35.607Z,0.68
2019-03-26T18:28:41.898Z,0.60
2019-03-26T18:31:48.159Z,0.90
2019-03-26T18:34:54.436Z,0.68
2019-03-26T18:38:00.714Z,0.80
2019-03-26T18:41:06.953Z,0.60
2019-03-26T18:44:13.305Z,0.50
2019-03-26T18:47:21.408Z,0.85
2019-03-26T18:50:27.633Z,0.68
2019-03-26T18:53:33.996Z,0.90
2019-03-26T18:56:40.231Z,0.60
2019-03-26T18:59:46.489Z,0.57
2019-03-26T19:02:52.753Z,0.70
2019-03-26T19:05:59.091Z,0.90
2019-03-26T19:13:40.564Z,0.68
2019-03-26T19:16:46.842Z,0.80
2019-03-26T19:19:53.116Z,0.65
2019-03-26T19:22:59.547Z,1.00
2019-03-26T19:26:08.282Z,1.50
2019-03-26T19:29:14.600Z,1.82
2019-03-26T19:32:21.010Z,1.12
2019-03-26T19:35:27.547Z,0.93
2019-03-26T19:38:33.776Z,0.95
2019-03-26T19:41:41.063Z,0.85
2019-03-26T19:44:47.451Z,1.20
2019-03-26T19:47:53.680Z,1.10
2019-03-26T19:51:00.951Z,0.80
2019-03-26T19:54:10.252Z,1.00
2019-03-26T19:57:16.481Z,1.12
2019-03-26T20:00:22.775Z,0.98
2019-03-26T20:03:30.056Z,1.00
2019-03-26T20:06:36.559Z,1.10
2019-03-26T20:09:42.914Z,1.00
2019-03-26T20:12:50.085Z,0.85
2019-03-26T20:15:56.380Z,0.80
2019-03-26T20:19:02.695Z,0.90
2019-03-26T20:22:09.928Z,1.00
2019-03-26T20:25:16.567Z,0.75
2019-03-26T20:28:26.908Z,0.88
2019-03-26T20:31:34.345Z,0.78
2019-03-26T20:34:40.639Z,0.90
2019-03-26T20:37:46.884Z,0.80
2019-03-26T20:41:05.011Z,0.80
2019-03-26T20:44:11.268Z,0.80
2019-03-26T20:47:17.543Z,0.95
2019-03-26T20:50:23.927Z,0.78
2019-03-26T20:53:30.275Z,1.12
2019-03-26T20:57:05.012Z,1.20
2019-03-26T21:00:15.141Z,0.90
2019-03-26T21:03:21.558Z,1.60
2019-03-26T21:06:27.804Z,1.12
2019-03-26T21:09:34.079Z,1.00
2019-03-26T21:12:40.345Z,1.20
2019-03-26T21:15:56.641Z,1.30
2019-03-26T21:18:54.621Z,1.00
2019-03-26T21:22:00.925Z,1.05
2019-03-26T21:25:07.904Z,1.07
2019-03-26T21:28:16.660Z,1.22
2019-03-26T21:31:29.856Z,1.10
2019-03-26T21:34:37.800Z,1.32
2019-03-26T21:38:00.514Z,1.30
2019-03-26T21:41:29.982Z,1.12
2019-03-26T21:44:37.719Z,1.10
2019-03-26T21:47:44.020Z,1.00
2019-03-26T21:50:50.335Z,1.35
2019-03-26T21:53:56.599Z,1.10
2019-03-26T21:57:02.911Z,0.95
2019-03-26T22:00:10.323Z,1.20
2019-03-26T22:03:17.957Z,1.37
2019-03-26T22:06:24.140Z,1.32
2019-03-26T22:09:30.415Z,1.40
2019-03-26T22:12:36.706Z,1.52
2019-03-26T22:15:42.943Z,1.30
2019-03-26T22:18:49.227Z,1.65
2019-03-26T22:21:55.598Z,1.55
2019-03-26T22:25:02.151Z,1.50
2019-03-26T22:28:08.464Z,1.60
2019-03-26T22:31:14.723Z,1.20
2019-03-26T22:34:21.095Z,1.50
2019-03-26T22:37:27.343Z,1.45
2019-03-26T22:40:33.575Z,1.77
2019-03-26T22:43:39.899Z,1.52
2019-03-26T22:46:46.215Z,1.90
2019-03-26T22:49:52.522Z,1.60
2019-03-26T22:52:58.783Z,1.17
2019-03-26T22:56:05.011Z,1.17
2019-03-26T22:59:11.283Z,1.35
2019-03-26T23:02:17.543Z,1.27
2019-03-26T23:05:23.840Z,1.30
2019-03-26T23:08:30.107Z,1.25
2019-03-26T23:11:36.355Z,1.30
2019-03-26T23:14:45.438Z,1.30
2019-03-26T23:17:52.272Z,1.35
2019-03-26T23:20:58.537Z,1.40
2019-03-26T23:24:05.928Z,1.10
2019-03-26T23:27:12.167Z,1.10
2019-03-26T23:30:18.885Z,1.32
2019-03-26T23:33:25.241Z,1.20
2019-03-26T23:36:31.490Z,1.37
2019-03-26T23:39:37.751Z,1.40
2019-03-26T23:42:44.019Z,1.12
2019-03-26T23:45:50.311Z,1.30
2019-03-26T23:48:56.575Z,1.57
2019-03-26T23:52:02.843Z,0.93
2019-03-26T23:55:11.059Z,1.30
2019-03-26T23:58:17.424Z,1.35
